Stratton Mountain, Vermont
Current Conditions -  °F | °C
As of 12:54 AM on Thursday 23 Oct 2014 (Local Time) from KDDH Reporting Station
Light Rain Light Rain  
Wind Chill: 50°   Ceiling: 2600
Heat Index: 50°   Visibility: 10mi
Dew Point: 45°   Wind: 5mph
Humidity: 83%   Direction: NA
Pressure: 29.9"   Gusts: NA
Location:  43.11°N, 72.91°W
Report Text: KDDH 230454Z AUTO VRB04KT 10SM -RA OVC026 10/07 A2990 RMK AO2 RAB52 SLP126 P0000 T01000072 401220089
Loading
Personal Weather Stations






























Interactive Weather Map New forecast layout! Learn more

10-Day Weather Forecast

Advertisements
Track Severe Weather on mobile